createdAt,value
2019-02-02T00:01:00.072Z,43.07
2019-02-02T00:03:28.527Z,35.70
2019-02-02T00:05:57.243Z,39.33
2019-02-02T00:08:26.092Z,43.77
2019-02-02T00:10:54.562Z,40.17
2019-02-02T00:13:29.729Z,41.83
2019-02-02T00:15:58.529Z,42.53
2019-02-02T00:18:28.155Z,46.63
2019-02-02T00:20:56.583Z,45.90
2019-02-02T00:23:25.048Z,42.90
2019-02-02T00:25:53.399Z,46.97
2019-02-02T00:28:22.045Z,46.20
2019-02-02T00:30:50.469Z,41.80
2019-02-02T00:33:19.832Z,47.83
2019-02-02T00:35:48.281Z,47.60
2019-02-02T00:38:16.627Z,52.73
2019-02-02T00:40:45.130Z,51.63
2019-02-02T00:43:13.583Z,58.10
2019-02-02T00:45:42.011Z,52.53
2019-02-02T00:48:10.436Z,45.27
2019-02-02T00:50:38.868Z,46.07
2019-02-02T00:53:07.296Z,48.63
2019-02-02T00:55:35.721Z,45.33
2019-02-02T00:58:04.460Z,52.70
2019-02-02T01:00:32.907Z,49.80
2019-02-02T01:03:01.373Z,50.53
2019-02-02T01:05:29.943Z,45.50
2019-02-02T01:07:58.365Z,48.40
2019-02-02T01:10:28.244Z,48.03
2019-02-02T01:12:56.671Z,51.30
2019-02-02T01:15:25.619Z,56.10
2019-02-02T01:17:54.057Z,52.07
2019-02-02T01:20:22.555Z,47.20
2019-02-02T01:22:51.016Z,56.97
2019-02-02T01:25:19.447Z,55.03
2019-02-02T01:27:47.883Z,49.93
2019-02-02T01:30:16.579Z,46.90
2019-02-02T01:32:45.403Z,49.47
2019-02-02T01:35:14.379Z,50.77
2019-02-02T01:37:43.134Z,52.63
2019-02-02T01:40:13.119Z,49.40
2019-02-02T01:42:41.532Z,66.63
2019-02-02T01:45:11.367Z,47.20
2019-02-02T01:47:39.744Z,50.50
2019-02-02T01:50:09.580Z,48.03
2019-02-02T01:52:38.013Z,49.47
2019-02-02T01:55:07.135Z,52.50
2019-02-02T01:57:35.496Z,46.27
2019-02-02T02:00:04.315Z,50.20
2019-02-02T02:02:47.104Z,51.03
2019-02-02T02:05:15.608Z,46.70
2019-02-02T02:07:44.044Z,48.00
2019-02-02T02:10:12.931Z,48.80
2019-02-02T02:12:41.401Z,50.47
2019-02-02T02:15:10.562Z,45.73
2019-02-02T02:17:38.960Z,53.07
2019-02-02T02:20:08.073Z,44.07
2019-02-02T02:22:41.061Z,49.20
2019-02-02T02:25:12.555Z,53.60
2019-02-02T02:27:40.995Z,49.17
2019-02-02T02:30:10.835Z,46.07
2019-02-02T02:32:39.268Z,50.77
2019-02-02T02:35:07.736Z,47.10
2019-02-02T02:37:36.152Z,47.13
2019-02-02T02:40:04.960Z,46.00
2019-02-02T02:42:35.471Z,45.30
2019-02-02T02:45:04.506Z,47.47
2019-02-02T02:47:32.882Z,43.50
2019-02-02T02:50:01.488Z,47.43
2019-02-02T02:52:29.923Z,48.13
2019-02-02T02:54:58.393Z,43.33
2019-02-02T02:57:26.871Z,49.90
2019-02-02T02:59:55.220Z,48.33
2019-02-02T03:02:23.639Z,49.63
2019-02-02T03:04:51.987Z,51.70
2019-02-02T03:07:20.420Z,50.23
2019-02-02T03:09:48.771Z,50.60
2019-02-02T03:12:17.224Z,51.73
2019-02-02T03:14:45.663Z,47.67
2019-02-02T03:17:14.077Z,48.33
2019-02-02T03:19:42.451Z,48.37
2019-02-02T03:22:10.872Z,43.93
2019-02-02T03:24:39.207Z,50.70
2019-02-02T03:27:07.639Z,48.33
2019-02-02T03:29:35.991Z,49.40
2019-02-02T03:32:04.428Z,45.30
2019-02-02T03:34:32.863Z,50.70
2019-02-02T03:37:01.212Z,52.90
2019-02-02T03:39:29.581Z,48.13
2019-02-02T03:41:58.015Z,48.43
2019-02-02T03:44:26.760Z,52.90
2019-02-02T03:46:55.111Z,56.67
2019-02-02T03:49:23.560Z,52.90
2019-02-02T03:51:51.974Z,50.33
2019-02-02T03:54:20.411Z,51.67
2019-02-02T03:56:48.846Z,54.70
2019-02-02T03:59:17.188Z,54.80
2019-02-02T04:01:45.540Z,53.77
2019-02-02T04:04:13.903Z,53.43
2019-02-02T04:06:42.332Z,53.17
2019-02-02T04:09:10.774Z,51.77
2019-02-02T04:11:39.263Z,48.83
2019-02-02T04:14:07.763Z,52.37
2019-02-02T04:16:36.207Z,58.13
2019-02-02T04:19:06.695Z,50.37
2019-02-02T04:21:35.143Z,52.40
2019-02-02T04:24:03.700Z,48.27
2019-02-02T04:26:32.131Z,48.20
2019-02-02T04:29:00.570Z,52.60
2019-02-02T04:31:29.000Z,55.73
2019-02-02T04:33:57.423Z,52.00
2019-02-02T04:36:25.787Z,48.03
2019-02-02T04:38:54.218Z,54.00
2019-02-02T04:41:22.651Z,53.77
2019-02-02T04:43:51.112Z,59.67
2019-02-02T04:46:19.527Z,54.70
2019-02-02T04:48:47.954Z,55.67
2019-02-02T04:51:16.408Z,49.20
2019-02-02T04:53:44.833Z,53.87
2019-02-02T04:56:13.180Z,66.37
2019-02-02T04:58:41.541Z,56.93
2019-02-02T05:01:09.963Z,53.10
2019-02-02T05:03:38.386Z,59.23
2019-02-02T05:06:26.119Z,65.73
2019-02-02T05:09:13.697Z,58.20
2019-02-02T05:12:03.684Z,60.03
2019-02-02T05:14:51.281Z,71.87
2019-02-02T05:17:38.907Z,64.80
2019-02-02T05:20:26.481Z,64.53
2019-02-02T05:23:14.076Z,67.70
2019-02-02T05:26:01.648Z,74.40
2019-02-02T05:28:49.224Z,64.07
2019-02-02T05:31:36.856Z,69.43
2019-02-02T05:34:24.516Z,76.50
2019-02-02T05:37:12.071Z,76.10
2019-02-02T05:39:59.656Z,75.17
2019-02-02T06:18:31.176Z,91.67
2019-02-02T06:20:59.527Z,93.20
2019-02-02T06:23:27.882Z,85.53
2019-02-02T06:25:56.322Z,91.83
2019-02-02T06:28:24.679Z,94.10
2019-02-02T06:30:53.127Z,90.80
2019-02-02T06:33:21.576Z,82.37
2019-02-02T06:35:49.999Z,90.87
2019-02-02T06:38:18.503Z,89.90
2019-02-02T06:40:46.895Z,92.17
2019-02-02T06:43:15.555Z,91.17
2019-02-02T06:45:44.456Z,92.53
2019-02-02T06:48:13.029Z,97.87
2019-02-02T06:50:41.743Z,97.43
2019-02-02T06:53:10.607Z,104.70
2019-02-02T06:55:39.479Z,100.20
2019-02-02T06:58:07.945Z,112.00
2019-02-02T07:00:36.596Z,104.07
2019-02-02T07:03:05.030Z,100.63
2019-02-02T07:05:34.046Z,97.57
2019-02-02T07:08:02.505Z,107.07
2019-02-02T07:10:31.203Z,94.30
2019-02-02T07:12:59.571Z,94.67
2019-02-02T07:15:28.478Z,102.40
2019-02-02T07:17:57.163Z,111.07
2019-02-02T07:20:25.778Z,102.73
2019-02-02T07:22:54.220Z,111.83
2019-02-02T07:25:22.659Z,105.40
2019-02-02T07:27:51.011Z,118.67
2019-02-02T07:30:28.028Z,122.00
2019-02-02T07:32:50.215Z,130.87
2019-02-02T07:35:18.669Z,133.30
2019-02-02T07:37:53.466Z,120.13
2019-02-02T07:40:22.077Z,110.23
2019-02-02T07:42:50.711Z,114.40
2019-02-02T07:45:20.123Z,103.33
2019-02-02T07:47:48.631Z,113.07
2019-02-02T07:50:17.064Z,108.37
2019-02-02T07:52:45.521Z,108.43
2019-02-02T07:55:14.857Z,105.77
2019-02-02T07:57:43.419Z,109.53
2019-02-02T08:00:15.877Z,104.23
2019-02-02T08:02:44.289Z,112.27
2019-02-02T08:05:12.803Z,103.77
2019-02-02T08:07:41.247Z,110.40
2019-02-02T08:10:10.183Z,101.73
2019-02-02T08:12:38.743Z,106.37
2019-02-02T08:15:08.468Z,100.27
2019-02-02T08:17:36.878Z,115.70
2019-02-02T08:20:05.753Z,112.37
2019-02-02T08:22:34.543Z,103.50
2019-02-02T08:25:03.175Z,103.90
2019-02-02T08:27:31.647Z,102.40
2019-02-02T08:30:00.355Z,110.23
2019-02-02T08:32:28.795Z,102.10
2019-02-02T08:34:57.219Z,104.67
2019-02-02T08:37:27.733Z,100.77
2019-02-02T08:39:56.219Z,104.17
2019-02-02T08:42:24.760Z,92.07
2019-02-02T08:44:53.360Z,88.20
2019-02-02T08:47:21.707Z,101.37
2019-02-02T08:49:50.161Z,90.93
2019-02-02T08:52:18.763Z,101.30
2019-02-02T08:54:47.501Z,90.30
2019-02-02T08:57:15.954Z,95.67
2019-02-02T08:59:44.299Z,90.60
2019-02-02T09:02:12.831Z,86.20
2019-02-02T09:04:41.615Z,100.00
2019-02-02T09:07:11.317Z,100.60
2019-02-02T09:09:39.747Z,92.33
2019-02-02T09:12:08.271Z,96.50
2019-02-02T09:14:37.335Z,90.80
2019-02-02T09:17:05.829Z,100.63
2019-02-02T09:19:34.651Z,85.17
2019-02-02T09:22:03.616Z,99.97
2019-02-02T09:24:32.225Z,96.53
2019-02-02T09:27:00.687Z,91.67
2019-02-02T09:29:29.768Z,84.63
2019-02-02T09:31:58.155Z,93.70
2019-02-02T09:34:28.871Z,100.17
2019-02-02T09:36:57.636Z,92.30
2019-02-02T09:39:26.427Z,89.17
2019-02-02T09:41:54.768Z,84.67
2019-02-02T09:44:23.099Z,86.90
2019-02-02T09:46:53.867Z,87.33
2019-02-02T09:49:23.234Z,81.43
2019-02-02T09:51:54.777Z,85.60
2019-02-02T09:54:26.651Z,91.87
2019-02-02T09:56:55.421Z,78.47
2019-02-02T09:59:24.110Z,92.07
2019-02-02T10:01:54.946Z,86.53
2019-02-02T10:04:23.406Z,89.37
2019-02-02T10:06:51.911Z,85.50
2019-02-02T10:09:20.431Z,80.43
2019-02-02T10:11:49.529Z,89.93
2019-02-02T10:14:18.077Z,91.03
2019-02-02T10:16:46.507Z,87.13
2019-02-02T10:19:15.291Z,88.73
2019-02-02T10:21:44.567Z,89.60
2019-02-02T10:24:13.070Z,86.90
2019-02-02T10:26:44.521Z,84.13
2019-02-02T10:29:13.393Z,92.87
2019-02-02T10:31:41.882Z,89.47
2019-02-02T10:34:12.312Z,82.47
2019-02-02T10:36:40.678Z,85.80
2019-02-02T10:39:09.695Z,88.47
2019-02-02T10:41:38.209Z,99.27
2019-02-02T10:44:06.613Z,85.83
2019-02-02T10:46:38.908Z,84.43
2019-02-02T10:49:07.629Z,86.80
2019-02-02T10:51:36.221Z,88.47
2019-02-02T10:54:05.673Z,97.47
2019-02-02T10:56:34.235Z,91.67
2019-02-02T10:59:02.629Z,93.03
2019-02-02T11:01:32.084Z,90.93
2019-02-02T11:04:01.224Z,88.10
2019-02-02T11:06:29.714Z,94.30
2019-02-02T11:08:58.207Z,96.80
2019-02-02T11:11:27.095Z,95.50
2019-02-02T11:13:55.683Z,88.43
2019-02-02T11:16:24.757Z,86.90
2019-02-02T11:18:53.270Z,93.27
2019-02-02T11:21:21.996Z,98.37
2019-02-02T11:23:50.605Z,89.73
2019-02-02T11:26:20.025Z,96.80
2019-02-02T11:28:48.604Z,87.70
2019-02-02T11:31:17.200Z,90.00
2019-02-02T11:33:46.142Z,114.03
2019-02-02T11:36:14.596Z,110.23
2019-02-02T11:38:42.899Z,100.60
2019-02-02T11:41:11.668Z,111.40
2019-02-02T11:43:40.442Z,99.10
2019-02-02T11:46:08.950Z,104.03
2019-02-02T11:48:37.383Z,106.93
2019-02-02T11:51:05.763Z,111.30
2019-02-02T11:53:37.248Z,117.27
2019-02-02T11:56:04.623Z,105.27
2019-02-02T11:58:33.048Z,110.03
2019-02-02T12:01:01.493Z,115.33
2019-02-02T12:03:30.175Z,123.43
2019-02-02T12:05:58.617Z,126.53
2019-02-02T12:08:26.976Z,128.67
2019-02-02T12:10:55.405Z,134.67
2019-02-02T12:13:23.915Z,133.23
2019-02-02T12:15:52.383Z,126.70
2019-02-02T12:18:20.811Z,126.47
2019-02-02T12:20:49.215Z,124.63
2019-02-02T12:23:17.705Z,130.23
2019-02-02T12:25:47.443Z,137.03
2019-02-02T12:28:15.793Z,118.80
2019-02-02T12:30:44.223Z,119.00
2019-02-02T12:33:12.868Z,126.73
2019-02-02T12:35:41.466Z,132.33
2019-02-02T12:38:09.895Z,135.13
2019-02-02T12:40:38.329Z,129.33
2019-02-02T12:43:06.763Z,130.63
2019-02-02T12:45:42.829Z,156.33
2019-02-02T12:48:11.356Z,135.93
2019-02-02T12:50:39.999Z,140.33
2019-02-02T12:53:08.747Z,161.80
2019-02-02T12:55:37.184Z,141.83
2019-02-02T12:58:05.784Z,150.37
2019-02-02T13:00:34.689Z,131.10
2019-02-02T13:03:03.203Z,157.63
2019-02-02T13:05:31.737Z,147.87
2019-02-02T13:08:00.240Z,145.03
2019-02-02T13:10:29.839Z,153.50
2019-02-02T13:13:04.419Z,145.23
2019-02-02T13:15:38.323Z,139.77
2019-02-02T13:18:29.936Z,155.57
2019-02-02T13:20:58.251Z,148.87
2019-02-02T13:23:26.899Z,161.50
2019-02-02T13:26:07.442Z,149.23
2019-02-02T13:28:37.942Z,158.70
2019-02-02T13:31:08.543Z,171.10
2019-02-02T13:33:37.932Z,142.13
2019-02-02T13:36:06.527Z,161.27
2019-02-02T13:38:34.994Z,163.80
2019-02-02T13:41:03.387Z,151.47
2019-02-02T13:43:32.101Z,170.40
2019-02-02T13:46:02.067Z,171.17
2019-02-02T13:48:30.627Z,185.50
2019-02-02T13:50:59.100Z,166.23
2019-02-02T13:53:27.580Z,184.73
2019-02-02T13:55:56.045Z,184.53
2019-02-02T13:58:24.523Z,173.87
2019-02-02T14:01:12.281Z,185.47
2019-02-02T14:03:59.894Z,153.00
2019-02-02T14:06:47.615Z,163.87
2019-02-02T14:09:35.176Z,167.87
2019-02-02T14:12:22.765Z,178.87
2019-02-02T14:15:10.332Z,171.97
2019-02-02T14:17:58.172Z,194.47
2019-02-02T14:21:05.330Z,185.57
2019-02-02T14:23:53.035Z,170.20
2019-02-02T19:27:15.377Z,203.67
2019-02-02T19:29:55.951Z,202.93
2019-02-02T19:32:35.932Z,265.50
2019-02-02T19:35:16.682Z,228.97
2019-02-02T19:37:56.750Z,203.67
2019-02-02T19:40:35.913Z,209.57
2019-02-02T22:04:33.804Z,198.03
2019-02-02T22:07:14.124Z,184.70
2019-02-02T22:09:54.504Z,200.10
2019-02-02T22:12:34.829Z,182.03
2019-02-02T22:15:17.326Z,177.40
2019-02-02T22:17:55.366Z,214.53
2019-02-02T22:32:23.515Z,207.13
2019-02-02T22:35:11.106Z,195.87
2019-02-02T22:37:58.716Z,204.77
2019-02-02T22:40:46.343Z,199.80
2019-02-02T22:43:33.900Z,207.20
2019-02-02T22:46:21.489Z,198.77
2019-02-02T22:49:09.124Z,199.03
2019-02-02T22:51:59.928Z,215.27
2019-02-02T22:54:46.676Z,212.97
2019-02-02T22:57:35.867Z,202.50
2019-02-02T23:03:31.892Z,207.17
2019-02-02T23:06:19.475Z,208.17
2019-02-02T23:09:07.068Z,209.80
2019-02-02T23:11:54.659Z,209.77
2019-02-02T23:17:38.310Z,201.70
2019-02-02T23:20:07.105Z,216.33
2019-02-02T23:22:54.704Z,224.47
2019-02-02T23:25:42.363Z,194.03
2019-02-02T23:28:29.956Z,197.40
2019-02-02T23:30:58.477Z,187.63
2019-02-02T23:57:35.486Z,211.13
